TimeEDT,TemperatureF,Dew PointF,Humidity,Sea Level PressureIn,VisibilityMPH,Wind Direction,Wind SpeedMPH,Gust SpeedMPH,PrecipitationIn,Events,Conditions,WindDirDegrees,DateUTC
12:56 AM,64.9,63.0,93,29.98,10.0,Calm,Calm,-,N/A,,Clear,0,2012-10-03 04:56:00
1:56 AM,64.9,63.0,93,29.99,10.0,Calm,Calm,-,N/A,,Partly Cloudy,0,2012-10-03 05:56:00
2:56 AM,64.9,63.0,93,30.00,10.0,Calm,Calm,-,N/A,,Scattered Clouds,0,2012-10-03 06:56:00
3:56 AM,64.0,62.1,93,30.00,10.0,Calm,Calm,-,N/A,,Clear,0,2012-10-03 07:56:00
4:56 AM,63.0,62.1,97,30.01,10.0,Calm,Calm,-,N/A,,Partly Cloudy,0,2012-10-03 08:56:00
5:56 AM,64.0,62.1,93,30.03,10.0,Calm,Calm,-,N/A,,Partly Cloudy,0,2012-10-03 09:56:00
6:56 AM,63.0,62.1,97,30.04,10.0,Calm,Calm,-,N/A,,Clear,0,2012-10-03 10:56:00
7:56 AM,63.0,62.1,97,30.07,10.0,Calm,Calm,-,N/A,,Clear,0,2012-10-03 11:56:00
8:56 AM,64.9,63.0,93,30.09,10.0,Calm,Calm,-,N/A,,Clear,0,2012-10-03 12:56:00
9:56 AM,66.0,64.0,93,30.12,10.0,Calm,Calm,-,N/A,,Clear,0,2012-10-03 13:56:00
11:56 AM,70.0,62.1,76,30.13,10.0,South,3.5,-,N/A,,Clear,190,2012-10-03 15:56:00
12:56 PM,73.0,61.0,66,30.12,10.0,South,6.9,-,N/A,,Clear,190,2012-10-03 16:56:00
1:56 PM,73.9,57.9,57,30.12,10.0,WSW,10.4,-,N/A,,Partly Cloudy,240,2012-10-03 17:56:00
2:56 PM,73.0,60.1,64,30.11,10.0,SSW,5.8,-,N/A,,Clear,200,2012-10-03 18:56:00
3:56 PM,73.0,61.0,66,30.11,10.0,WSW,5.8,-,N/A,,Mostly Cloudy,240,2012-10-03 19:56:00
4:56 PM,72.0,62.1,71,30.11,10.0,SSW,5.8,-,N/A,,Overcast,200,2012-10-03 20:56:00
5:56 PM,71.1,62.1,73,30.12,10.0,SSW,3.5,-,N/A,,Partly Cloudy,200,2012-10-03 21:56:00
6:56 PM,69.1,64.0,84,30.14,10.0,South,4.6,-,N/A,,Partly Cloudy,180,2012-10-03 22:56:00
7:56 PM,69.1,63.0,81,30.14,10.0,Calm,Calm,-,0.00,,Partly Cloudy,0,2012-10-03 23:56:00
8:56 PM,66.9,63.0,87,30.16,10.0,Calm,Calm,-,N/A,,Clear,0,2012-10-04 00:56:00
9:56 PM,66.9,64.0,90,30.18,10.0,Calm,Calm,-,N/A,,Clear,0,2012-10-04 01:56:00
10:56 PM,66.0,63.0,90,30.20,10.0,Calm,Calm,-,N/A,,Clear,0,2012-10-04 02:56:00
11:56 PM,66.0,63.0,90,30.20,10.0,Calm,Calm,-,N/A,,Partly Cloudy,0,2012-10-04 03:56:00